sensor_id;sensor_type;location;lat;lon;timestamp;pressure;altitude;pressure_sealevel;temperature;humidity
71057;BME280;58380;48.312;9.246;2023-04-22T00:00:42;93031.47;;;7.22;100.00
71057;BME280;58380;48.312;9.246;2023-04-22T00:03:07;92994.47;;;6.91;100.00
71057;BME280;58380;48.312;9.246;2023-04-22T00:05:33;93036.69;;;7.17;100.00
71057;BME280;58380;48.312;9.246;2023-04-22T00:07:58;93017.97;;;7.08;100.00
71057;BME280;58380;48.312;9.246;2023-04-22T00:10:25;93028.19;;;7.04;100.00
71057;BME280;58380;48.312;9.246;2023-04-22T00:12:51;93034.22;;;7.05;100.00
71057;BME280;58380;48.312;9.246;2023-04-22T00:15:17;93029.19;;;6.98;100.00
71057;BME280;58380;48.312;9.246;2023-04-22T00:17:46;93036.81;;;7.00;100.00
71057;BME280;58380;48.312;9.246;2023-04-22T00:20:12;93023.66;;;6.95;100.00
71057;BME280;58380;48.312;9.246;2023-04-22T00:22:37;93029.13;;;6.93;100.00
71057;BME280;58380;48.312;9.246;2023-04-22T00:25:03;93002.94;;;6.66;100.00
71057;BME280;58380;48.312;9.246;2023-04-22T00:27:28;92996.66;;;6.67;100.00
71057;BME280;58380;48.312;9.246;2023-04-22T00:29:54;92999.84;;;6.69;100.00
71057;BME280;58380;48.312;9.246;2023-04-22T00:32:19;92985.56;;;6.60;100.00
71057;BME280;58380;48.312;9.246;2023-04-22T00:34:46;93025.72;;;6.93;100.00
71057;BME280;58380;48.312;9.246;2023-04-22T00:37:12;92998.78;;;6.70;100.00
71057;BME280;58380;48.312;9.246;2023-04-22T00:39:37;93027.91;;;6.74;100.00
71057;BME280;58380;48.312;9.246;2023-04-22T00:42:05;93007.06;;;6.57;100.00
71057;BME280;58380;48.312;9.246;2023-04-22T00:44:31;93027.59;;;6.65;100.00
71057;BME280;58380;48.312;9.246;2023-04-22T00:46:57;93019.16;;;6.63;100.00
71057;BME280;58380;48.312;9.246;2023-04-22T00:49:25;92992.84;;;6.53;100.00
71057;BME280;58380;48.312;9.246;2023-04-22T00:51:52;93015.50;;;6.64;100.00
71057;BME280;58380;48.312;9.246;2023-04-22T00:54:18;93005.78;;;6.59;100.00
71057;BME280;58380;48.312;9.246;2023-04-22T00:56:43;93027.44;;;6.77;100.00
71057;BME280;58380;48.312;9.246;2023-04-22T00:59:09;92993.31;;;6.44;100.00
71057;BME280;58380;48.312;9.246;2023-04-22T01:01:35;93034.34;;;6.61;100.00
71057;BME280;58380;48.312;9.246;2023-04-22T01:04:02;93031.41;;;6.52;100.00
71057;BME280;58380;48.312;9.246;2023-04-22T01:06:28;93029.19;;;6.44;100.00
71057;BME280;58380;48.312;9.246;2023-04-22T01:08:57;92999.47;;;6.33;100.00
71057;BME280;58380;48.312;9.246;2023-04-22T01:11:23;93014.81;;;6.46;100.00
71057;BME280;58380;48.312;9.246;2023-04-22T01:13:48;93027.13;;;6.46;100.00
71057;BME280;58380;48.312;9.246;2023-04-22T01:16:14;93004.97;;;6.32;100.00
71057;BME280;58380;48.312;9.246;2023-04-22T01:18:40;92985.75;;;6.26;100.00
71057;BME280;58380;48.312;9.246;2023-04-22T01:21:06;93031.03;;;6.43;100.00
71057;BME280;58380;48.312;9.246;2023-04-22T01:23:32;93020.75;;;6.37;100.00
71057;BME280;58380;48.312;9.246;2023-04-22T01:25:58;93037.28;;;6.37;100.00
71057;BME280;58380;48.312;9.246;2023-04-22T01:28:23;93017.75;;;6.28;100.00
71057;BME280;58380;48.312;9.246;2023-04-22T01:30:50;93031.75;;;6.39;100.00
71057;BME280;58380;48.312;9.246;2023-04-22T01:33:16;93028.91;;;6.40;100.00
71057;BME280;58380;48.312;9.246;2023-04-22T01:35:44;93027.38;;;6.44;100.00
71057;BME280;58380;48.312;9.246;2023-04-22T01:38:11;92966.38;;;6.00;100.00
71057;BME280;58380;48.312;9.246;2023-04-22T01:40:38;93030.97;;;6.38;100.00
71057;BME280;58380;48.312;9.246;2023-04-22T01:43:04;92999.69;;;6.04;100.00
71057;BME280;58380;48.312;9.246;2023-04-22T01:45:30;92987.75;;;5.92;100.00
71057;BME280;58380;48.312;9.246;2023-04-22T01:47:56;93027.59;;;6.16;100.00
71057;BME280;58380;48.312;9.246;2023-04-22T01:50:22;93015.75;;;6.13;100.00
71057;BME280;58380;48.312;9.246;2023-04-22T01:52:48;93004.13;;;6.04;100.00
71057;BME280;58380;48.312;9.246;2023-04-22T01:55:14;93016.75;;;6.07;100.00
71057;BME280;58380;48.312;9.246;2023-04-22T01:57:39;92903.22;;;5.30;100.00
71057;BME280;58380;48.312;9.246;2023-04-22T02:00:07;93029.59;;;6.09;100.00
71057;BME280;58380;48.312;9.246;2023-04-22T02:02:33;93027.09;;;6.19;100.00
71057;BME280;58380;48.312;9.246;2023-04-22T02:04:59;93016.03;;;6.12;100.00
71057;BME280;58380;48.312;9.246;2023-04-22T02:07:25;93023.19;;;6.21;100.00
71057;BME280;58380;48.312;9.246;2023-04-22T02:09:50;92989.78;;;6.07;100.00
71057;BME280;58380;48.312;9.246;2023-04-22T02:12:16;93030.31;;;6.26;100.00
71057;BME280;58380;48.312;9.246;2023-04-22T02:14:41;92998.03;;;5.98;100.00
71057;BME280;58380;48.312;9.246;2023-04-22T02:17:07;93002.72;;;5.96;100.00
71057;BME280;58380;48.312;9.246;2023-04-22T02:19:32;92934.91;;;5.34;100.00
71057;BME280;58380;48.312;9.246;2023-04-22T02:21:58;92995.66;;;5.75;100.00
71057;BME280;58380;48.312;9.246;2023-04-22T02:24:23;93018.84;;;5.88;100.00
71057;BME280;58380;48.312;9.246;2023-04-22T02:26:49;93014.16;;;5.90;100.00
71057;BME280;58380;48.312;9.246;2023-04-22T02:29:15;92985.66;;;5.72;100.00
71057;BME280;58380;48.312;9.246;2023-04-22T02:31:41;93019.41;;;5.90;100.00
71057;BME280;58380;48.312;9.246;2023-04-22T02:34:06;92994.19;;;5.62;100.00
71057;BME280;58380;48.312;9.246;2023-04-22T02:36:32;93029.44;;;5.76;100.00
71057;BME280;58380;48.312;9.246;2023-04-22T02:38:59;92992.88;;;5.43;100.00
71057;BME280;58380;48.312;9.246;2023-04-22T02:41:27;93013.75;;;5.37;100.00
71057;BME280;58380;48.312;9.246;2023-04-22T02:43:52;93018.41;;;5.35;100.00
71057;BME280;58380;48.312;9.246;2023-04-22T02:46:18;92991.56;;;5.23;100.00
71057;BME280;58380;48.312;9.246;2023-04-22T02:48:43;92981.72;;;5.13;100.00
71057;BME280;58380;48.312;9.246;2023-04-22T02:51:09;93032.28;;;5.36;100.00
71057;BME280;58380;48.312;9.246;2023-04-22T02:53:35;93042.28;;;5.39;100.00
71057;BME280;58380;48.312;9.246;2023-04-22T02:56:01;93035.88;;;5.30;100.00
71057;BME280;58380;48.312;9.246;2023-04-22T02:58:26;93007.88;;;4.96;100.00
71057;BME280;58380;48.312;9.246;2023-04-22T03:00:52;93010.75;;;4.95;100.00
71057;BME280;58380;48.312;9.246;2023-04-22T03:03:17;92993.38;;;4.89;100.00
71057;BME280;58380;48.312;9.246;2023-04-22T03:05:43;93038.72;;;5.11;100.00
71057;BME280;58380;48.312;9.246;2023-04-22T03:08:08;92999.66;;;4.88;100.00
71057;BME280;58380;48.312;9.246;2023-04-22T03:10:34;93031.28;;;5.03;100.00
71057;BME280;58380;48.312;9.246;2023-04-22T03:12:59;93003.78;;;4.84;100.00
71057;BME280;58380;48.312;9.246;2023-04-22T03:15:25;93028.44;;;5.05;100.00
71057;BME280;58380;48.312;9.246;2023-04-22T03:17:50;93016.84;;;4.84;100.00
71057;BME280;58380;48.312;9.246;2023-04-22T03:20:16;92963.50;;;4.51;100.00
71057;BME280;58380;48.312;9.246;2023-04-22T03:22:41;92984.75;;;4.54;100.00
71057;BME280;58380;48.312;9.246;2023-04-22T03:25:08;92986.75;;;4.64;100.00
71057;BME280;58380;48.312;9.246;2023-04-22T03:27:35;93010.97;;;4.76;100.00
71057;BME280;58380;48.312;9.246;2023-04-22T03:30:00;92941.00;;;4.33;100.00
71057;BME280;58380;48.312;9.246;2023-04-22T03:32:26;93025.41;;;4.62;100.00
71057;BME280;58380;48.312;9.246;2023-04-22T03:34:52;93037.66;;;4.62;100.00
71057;BME280;58380;48.312;9.246;2023-04-22T03:37:17;92995.22;;;4.26;100.00
71057;BME280;58380;48.312;9.246;2023-04-22T03:39:42;93015.75;;;4.34;100.00
71057;BME280;58380;48.312;9.246;2023-04-22T03:42:09;93011.84;;;4.20;100.00
71057;BME280;58380;48.312;9.246;2023-04-22T03:44:35;93013.47;;;4.09;100.00
71057;BME280;58380;48.312;9.246;2023-04-22T03:47:00;93037.59;;;4.28;100.00
71057;BME280;58380;48.312;9.246;2023-04-22T03:49:26;93031.94;;;4.19;100.00
71057;BME280;58380;48.312;9.246;2023-04-22T03:51:51;93054.41;;;4.32;100.00
71057;BME280;58380;48.312;9.246;2023-04-22T03:54:18;93046.09;;;4.35;100.00
71057;BME280;58380;48.312;9.246;2023-04-22T03:56:43;92959.69;;;3.67;100.00
71057;BME280;58380;48.312;9.246;2023-04-22T03:59:09;93039.75;;;4.19;100.00
71057;BME280;58380;48.312;9.246;2023-04-22T04:01:34;93039.53;;;4.21;100.00
71057;BME280;58380;48.312;9.246;2023-04-22T04:04:00;93038.00;;;4.08;100.00
71057;BME280;58380;48.312;9.246;2023-04-22T04:06:26;92999.25;;;3.76;100.00
71057;BME280;58380;48.312;9.246;2023-04-22T04:08:52;93036.19;;;3.97;100.00
71057;BME280;58380;48.312;9.246;2023-04-22T04:11:18;93025.22;;;3.95;100.00
71057;BME280;58380;48.312;9.246;2023-04-22T04:13:43;93034.72;;;4.01;100.00
71057;BME280;58380;48.312;9.246;2023-04-22T04:16:09;93000.59;;;3.79;100.00
71057;BME280;58380;48.312;9.246;2023-04-22T04:18:34;93022.03;;;3.93;100.00
71057;BME280;58380;48.312;9.246;2023-04-22T04:21:00;93012.41;;;3.81;100.00
71057;BME280;58380;48.312;9.246;2023-04-22T04:23:26;93003.47;;;3.77;100.00
71057;BME280;58380;48.312;9.246;2023-04-22T04:25:51;93037.44;;;4.06;100.00
71057;BME280;58380;48.312;9.246;2023-04-22T04:28:17;93044.78;;;4.09;100.00
71057;BME280;58380;48.312;9.246;2023-04-22T04:30:43;93045.63;;;4.09;100.00
71057;BME280;58380;48.312;9.246;2023-04-22T04:33:08;93037.22;;;4.07;100.00
71057;BME280;58380;48.312;9.246;2023-04-22T04:35:36;93034.50;;;4.02;100.00
71057;BME280;58380;48.312;9.246;2023-04-22T04:38:02;93007.28;;;3.86;100.00
71057;BME280;58380;48.312;9.246;2023-04-22T04:40:29;93046.88;;;4.07;100.00
71057;BME280;58380;48.312;9.246;2023-04-22T04:42:55;93048.66;;;4.06;100.00
71057;BME280;58380;48.312;9.246;2023-04-22T04:45:26;93020.59;;;3.85;100.00
71057;BME280;58380;48.312;9.246;2023-04-22T04:47:52;93051.84;;;4.08;100.00
71057;BME280;58380;48.312;9.246;2023-04-22T04:50:19;93052.63;;;4.09;100.00
71057;BME280;58380;48.312;9.246;2023-04-22T04:52:46;93042.66;;;4.06;100.00
71057;BME280;58380;48.312;9.246;2023-04-22T04:55:16;93026.88;;;4.01;100.00
71057;BME280;58380;48.312;9.246;2023-04-22T04:57:43;93050.47;;;4.18;100.00
71057;BME280;58380;48.312;9.246;2023-04-22T05:00:09;93015.56;;;3.95;100.00
71057;BME280;58380;48.312;9.246;2023-04-22T05:02:35;93034.34;;;4.09;100.00
71057;BME280;58380;48.312;9.246;2023-04-22T05:05:01;93039.34;;;4.10;100.00
71057;BME280;58380;48.312;9.246;2023-04-22T05:07:26;93017.78;;;4.03;100.00
71057;BME280;58380;48.312;9.246;2023-04-22T05:09:52;93012.78;;;4.02;100.00
71057;BME280;58380;48.312;9.246;2023-04-22T05:12:18;93042.63;;;4.18;100.00
71057;BME280;58380;48.312;9.246;2023-04-22T05:14:43;93035.66;;;4.23;100.00
71057;BME280;58380;48.312;9.246;2023-04-22T05:17:10;92998.72;;;4.03;100.00
71057;BME280;58380;48.312;9.246;2023-04-22T05:19:37;93037.13;;;4.31;100.00
71057;BME280;58380;48.312;9.246;2023-04-22T05:22:02;93056.16;;;4.43;100.00
71057;BME280;58380;48.312;9.246;2023-04-22T05:24:28;93031.94;;;4.48;100.00
71057;BME280;58380;48.312;9.246;2023-04-22T05:26:53;93021.50;;;4.48;100.00
71057;BME280;58380;48.312;9.246;2023-04-22T05:29:18;93025.41;;;4.62;100.00
71057;BME280;58380;48.312;9.246;2023-04-22T05:31:44;93036.59;;;4.74;100.00
71057;BME280;58380;48.312;9.246;2023-04-22T05:34:09;93003.13;;;4.60;100.00
71057;BME280;58380;48.312;9.246;2023-04-22T05:36:36;93055.38;;;5.05;100.00
71057;BME280;58380;48.312;9.246;2023-04-22T05:39:02;93041.97;;;5.02;100.00
71057;BME280;58380;48.312;9.246;2023-04-22T05:41:27;93036.66;;;4.96;100.00
71057;BME280;58380;48.312;9.246;2023-04-22T05:43:53;93008.34;;;4.76;100.00
71057;BME280;58380;48.312;9.246;2023-04-22T05:46:18;93063.09;;;5.12;100.00
71057;BME280;58380;48.312;9.246;2023-04-22T05:48:45;93068.53;;;5.10;100.00
71057;BME280;58380;48.312;9.246;2023-04-22T05:51:10;93072.81;;;5.16;100.00
71057;BME280;58380;48.312;9.246;2023-04-22T05:53:36;93019.53;;;5.06;100.00
71057;BME280;58380;48.312;9.246;2023-04-22T05:56:01;93059.81;;;5.38;100.00
71057;BME280;58380;48.312;9.246;2023-04-22T05:58:27;93059.16;;;5.48;100.00
71057;BME280;58380;48.312;9.246;2023-04-22T06:00:52;93076.34;;;5.78;100.00
71057;BME280;58380;48.312;9.246;2023-04-22T06:03:17;93059.97;;;5.88;100.00
71057;BME280;58380;48.312;9.246;2023-04-22T06:05:43;93057.91;;;6.07;100.00
71057;BME280;58380;48.312;9.246;2023-04-22T06:08:09;93065.50;;;6.30;100.00
71057;BME280;58380;48.312;9.246;2023-04-22T06:10:34;93055.66;;;6.42;100.00
71057;BME280;58380;48.312;9.246;2023-04-22T06:13:00;93070.19;;;6.77;100.00
71057;BME280;58380;48.312;9.246;2023-04-22T06:15:25;93063.09;;;7.05;100.00
71057;BME280;58380;48.312;9.246;2023-04-22T06:17:51;93058.00;;;7.25;100.00
71057;BME280;58380;48.312;9.246;2023-04-22T06:20:16;93055.97;;;7.32;100.00
71057;BME280;58380;48.312;9.246;2023-04-22T06:22:41;93053.13;;;7.39;100.00
71057;BME280;58380;48.312;9.246;2023-04-22T06:25:07;93069.03;;;7.60;100.00
71057;BME280;58380;48.312;9.246;2023-04-22T06:27:33;93039.53;;;7.47;100.00
71057;BME280;58380;48.312;9.246;2023-04-22T06:29:58;93050.72;;;7.75;100.00
71057;BME280;58380;48.312;9.246;2023-04-22T06:32:23;93015.25;;;7.72;100.00
71057;BME280;58380;48.312;9.246;2023-04-22T06:34:49;93059.84;;;8.10;100.00
71057;BME280;58380;48.312;9.246;2023-04-22T06:37:14;93054.88;;;8.13;100.00
71057;BME280;58380;48.312;9.246;2023-04-22T06:39:42;93060.69;;;8.26;100.00
71057;BME280;58380;48.312;9.246;2023-04-22T06:42:08;93061.06;;;8.39;100.00
71057;BME280;58380;48.312;9.246;2023-04-22T06:44:33;93042.31;;;8.31;100.00
71057;BME280;58380;48.312;9.246;2023-04-22T06:47:00;93016.31;;;8.34;100.00
71057;BME280;58380;48.312;9.246;2023-04-22T06:49:25;93049.81;;;8.64;100.00
71057;BME280;58380;48.312;9.246;2023-04-22T06:51:51;93027.44;;;8.57;100.00
71057;BME280;58380;48.312;9.246;2023-04-22T06:54:16;93043.00;;;8.74;100.00
71057;BME280;58380;48.312;9.246;2023-04-22T06:56:41;93063.56;;;8.97;100.00
71057;BME280;58380;48.312;9.246;2023-04-22T06:59:07;93061.47;;;9.04;100.00
71057;BME280;58380;48.312;9.246;2023-04-22T07:01:32;93060.41;;;9.11;100.00
71057;BME280;58380;48.312;9.246;2023-04-22T07:03:58;93053.84;;;9.18;100.00
71057;BME280;58380;48.312;9.246;2023-04-22T07:06:23;93050.16;;;9.29;100.00
71057;BME280;58380;48.312;9.246;2023-04-22T07:08:49;93018.56;;;9.29;100.00
71057;BME280;58380;48.312;9.246;2023-04-22T07:11:15;93022.50;;;9.47;100.00
71057;BME280;58380;48.312;9.246;2023-04-22T07:13:41;93044.06;;;9.70;100.00
71057;BME280;58380;48.312;9.246;2023-04-22T07:16:06;93045.63;;;9.91;100.00
71057;BME280;58380;48.312;9.246;2023-04-22T07:18:32;93045.31;;;10.13;98.83
71057;BME280;58380;48.312;9.246;2023-04-22T07:20:59;93028.16;;;10.11;96.66
71057;BME280;58380;48.312;9.246;2023-04-22T07:23:25;93044.72;;;10.37;97.07
71057;BME280;58380;48.312;9.246;2023-04-22T07:25:52;93034.13;;;10.42;94.79
71057;BME280;58380;48.312;9.246;2023-04-22T07:28:18;93051.19;;;10.60;93.71
71057;BME280;58380;48.312;9.246;2023-04-22T07:30:43;93012.75;;;10.49;92.73
71057;BME280;58380;48.312;9.246;2023-04-22T07:33:10;93041.38;;;10.76;91.52
71057;BME280;58380;48.312;9.246;2023-04-22T07:35:36;92995.25;;;10.58;91.05
71057;BME280;58380;48.312;9.246;2023-04-22T07:38:01;93053.63;;;11.01;89.47
71057;BME280;58380;48.312;9.246;2023-04-22T07:40:27;93023.56;;;10.92;87.92
71057;BME280;58380;48.312;9.246;2023-04-22T07:42:52;93041.94;;;11.07;87.74
71057;BME280;58380;48.312;9.246;2023-04-22T07:45:20;93045.38;;;11.08;88.36
71057;BME280;58380;48.312;9.246;2023-04-22T07:47:46;93052.91;;;11.25;87.44
71057;BME280;58380;48.312;9.246;2023-04-22T07:50:12;93047.94;;;11.18;87.19
71057;BME280;58380;48.312;9.246;2023-04-22T07:52:37;93053.66;;;11.30;88.02
71057;BME280;58380;48.312;9.246;2023-04-22T07:55:03;93051.97;;;11.44;87.55
71057;BME280;58380;48.312;9.246;2023-04-22T07:57:29;93062.25;;;11.51;86.50
71057;BME280;58380;48.312;9.246;2023-04-22T07:59:54;92983.09;;;11.01;86.65
71057;BME280;58380;48.312;9.246;2023-04-22T08:02:19;92937.94;;;10.69;86.41
71057;BME280;58380;48.312;9.246;2023-04-22T08:04:45;92909.97;;;10.63;86.55
71057;BME280;58380;48.312;9.246;2023-04-22T08:07:10;93011.22;;;11.21;84.51
71057;BME280;58380;48.312;9.246;2023-04-22T08:09:36;93000.81;;;11.30;82.67
71057;BME280;58380;48.312;9.246;2023-04-22T08:12:01;93044.34;;;11.72;82.03
71057;BME280;58380;48.312;9.246;2023-04-22T08:14:27;92999.13;;;11.44;80.59
71057;BME280;58380;48.312;9.246;2023-04-22T08:16:52;93057.06;;;11.99;80.38
71057;BME280;58380;48.312;9.246;2023-04-22T08:19:19;93035.84;;;12.04;80.00
71057;BME280;58380;48.312;9.246;2023-04-22T08:21:45;93013.53;;;12.16;79.48
71057;BME280;58380;48.312;9.246;2023-04-22T08:24:12;93046.59;;;12.61;76.88
71057;BME280;58380;48.312;9.246;2023-04-22T08:26:38;93053.13;;;12.88;75.93
71057;BME280;58380;48.312;9.246;2023-04-22T08:29:04;93038.66;;;12.99;74.52
71057;BME280;58380;48.312;9.246;2023-04-22T08:31:30;92996.09;;;12.95;75.90
71057;BME280;58380;48.312;9.246;2023-04-22T08:33:56;93017.94;;;13.20;72.86
71057;BME280;58380;48.312;9.246;2023-04-22T08:36:22;93007.56;;;13.24;70.60
71057;BME280;58380;48.312;9.246;2023-04-22T08:38:50;92915.69;;;12.67;70.23
71057;BME280;58380;48.312;9.246;2023-04-22T08:41:17;93013.16;;;13.41;72.39
71057;BME280;58380;48.312;9.246;2023-04-22T08:43:46;93017.00;;;13.49;74.56
71057;BME280;58380;48.312;9.246;2023-04-22T08:46:13;92960.09;;;13.27;74.86
71057;BME280;58380;48.312;9.246;2023-04-22T08:48:39;93007.34;;;13.72;70.20
71057;BME280;58380;48.312;9.246;2023-04-22T08:51:05;93005.00;;;13.84;67.60
71057;BME280;58380;48.312;9.246;2023-04-22T08:53:32;92994.97;;;13.81;69.12
71057;BME280;58380;48.312;9.246;2023-04-22T08:55:58;92995.47;;;13.83;67.29
71057;BME280;58380;48.312;9.246;2023-04-22T08:58:27;92977.97;;;13.82;68.72
71057;BME280;58380;48.312;9.246;2023-04-22T09:00:54;92944.78;;;13.71;69.35
71057;BME280;58380;48.312;9.246;2023-04-22T09:03:20;92975.53;;;13.99;67.22
71057;BME280;58380;48.312;9.246;2023-04-22T09:05:49;93013.66;;;14.45;67.62
71057;BME280;58380;48.312;9.246;2023-04-22T09:08:16;93028.31;;;14.70;65.19
71057;BME280;58380;48.312;9.246;2023-04-22T09:10:43;93017.63;;;14.75;63.00
71057;BME280;58380;48.312;9.246;2023-04-22T09:13:09;92995.09;;;14.73;63.98
71057;BME280;58380;48.312;9.246;2023-04-22T09:15:35;93015.47;;;15.00;62.67
71057;BME280;58380;48.312;9.246;2023-04-22T09:18:02;93039.91;;;15.24;62.08
71057;BME280;58380;48.312;9.246;2023-04-22T09:20:30;92989.53;;;15.19;63.76
71057;BME280;58380;48.312;9.246;2023-04-22T09:23:01;93020.28;;;15.57;60.96
71057;BME280;58380;48.312;9.246;2023-04-22T09:25:31;92982.69;;;15.49;57.55
71057;BME280;58380;48.312;9.246;2023-04-22T09:27:58;93006.97;;;15.70;52.46
71057;BME280;58380;48.312;9.246;2023-04-22T09:30:32;93007.63;;;15.85;59.27
71057;BME280;58380;48.312;9.246;2023-04-22T09:33:03;93011.13;;;15.94;56.86
71057;BME280;58380;48.312;9.246;2023-04-22T09:35:31;93012.84;;;16.21;59.41
71057;BME280;58380;48.312;9.246;2023-04-22T09:38:00;92954.13;;;15.86;52.94
71057;BME280;58380;48.312;9.246;2023-04-22T09:40:29;93011.44;;;16.32;53.92
71057;BME280;58380;48.312;9.246;2023-04-22T09:42:57;93018.53;;;16.37;52.77
71057;BME280;58380;48.312;9.246;2023-04-22T09:45:34;93023.25;;;16.49;54.47
71057;BME280;58380;48.312;9.246;2023-04-22T09:48:08;93014.22;;;16.58;58.11
71057;BME280;58380;48.312;9.246;2023-04-22T09:50:43;92998.31;;;16.45;52.15
71057;BME280;58380;48.312;9.246;2023-04-22T09:53:12;93014.53;;;16.74;50.42
71057;BME280;58380;48.312;9.246;2023-04-22T09:55:41;93004.56;;;16.80;49.33
71057;BME280;58380;48.312;9.246;2023-04-22T09:58:14;93002.38;;;16.91;50.36
71057;BME280;58380;48.312;9.246;2023-04-22T10:00:53;93000.81;;;16.98;46.13
71057;BME280;58380;48.312;9.246;2023-04-22T10:03:21;93003.78;;;16.97;46.60
71057;BME280;58380;48.312;9.246;2023-04-22T10:05:46;92984.19;;;16.93;47.02
71057;BME280;58380;48.312;9.246;2023-04-22T10:08:15;93001.59;;;17.16;51.35
71057;BME280;58380;48.312;9.246;2023-04-22T10:10:41;92985.13;;;17.14;49.71
71057;BME280;58380;48.312;9.246;2023-04-22T10:13:07;92940.59;;;16.89;52.00
71057;BME280;58380;48.312;9.246;2023-04-22T10:15:52;92986.72;;;17.33;53.63
71057;BME280;58380;48.312;9.246;2023-04-22T10:18:27;92984.22;;;17.28;48.61
71057;BME280;58380;48.312;9.246;2023-04-22T10:20:55;92918.31;;;17.11;44.64
71057;BME280;58380;48.312;9.246;2023-04-22T10:23:24;92918.47;;;17.14;45.25
71057;BME280;58380;48.312;9.246;2023-04-22T10:25:54;92977.75;;;17.46;48.99
71057;BME280;58380;48.312;9.246;2023-04-22T10:28:22;92945.13;;;17.32;51.76
71057;BME280;58380;48.312;9.246;2023-04-22T10:30:48;92990.44;;;17.49;50.12
71057;BME280;58380;48.312;9.246;2023-04-22T10:41:25;92966.59;;;17.44;49.84
71057;BME280;58380;48.312;9.246;2023-04-22T10:43:56;92978.19;;;17.57;49.74
71057;BME280;58380;48.312;9.246;2023-04-22T10:48:58;92936.19;;;17.19;50.68
71057;BME280;58380;48.312;9.246;2023-04-22T10:51:58;92971.78;;;17.40;51.29
71057;BME280;58380;48.312;9.246;2023-04-22T10:57:06;92970.22;;;17.48;50.09
71057;BME280;58380;48.312;9.246;2023-04-22T10:59:40;92967.16;;;17.76;45.79
71057;BME280;58380;48.312;9.246;2023-04-22T11:02:14;92953.19;;;17.87;43.94
71057;BME280;58380;48.312;9.246;2023-04-22T11:04:43;92982.00;;;18.11;44.41
71057;BME280;58380;48.312;9.246;2023-04-22T11:07:14;92957.16;;;18.20;50.29
71057;BME280;58380;48.312;9.246;2023-04-22T11:10:07;92976.28;;;18.60;47.44
71057;BME280;58380;48.312;9.246;2023-04-22T11:15:11;92984.91;;;18.95;40.98
71057;BME280;58380;48.312;9.246;2023-04-22T11:17:44;92983.78;;;18.96;43.96
71057;BME280;58380;48.312;9.246;2023-04-22T11:20:12;92971.25;;;19.09;44.80
71057;BME280;58380;48.312;9.246;2023-04-22T11:22:44;92985.34;;;19.18;46.84
71057;BME280;58380;48.312;9.246;2023-04-22T11:25:17;92939.63;;;18.90;43.84
71057;BME280;58380;48.312;9.246;2023-04-22T11:27:45;92962.72;;;18.95;45.17
71057;BME280;58380;48.312;9.246;2023-04-22T11:30:16;92982.25;;;18.87;43.04
71057;BME280;58380;48.312;9.246;2023-04-22T11:32:44;92933.75;;;18.46;44.58
71057;BME280;58380;48.312;9.246;2023-04-22T11:35:22;92933.75;;;18.46;44.65
71057;BME280;58380;48.312;9.246;2023-04-22T11:37:58;92963.81;;;18.64;46.95
71057;BME280;58380;48.312;9.246;2023-04-22T11:40:37;92918.75;;;18.33;44.34
71057;BME280;58380;48.312;9.246;2023-04-22T11:43:05;92933.66;;;18.34;43.51
71057;BME280;58380;48.312;9.246;2023-04-22T11:45:33;92958.63;;;18.68;46.46
71057;BME280;58380;48.312;9.246;2023-04-22T11:48:00;92954.19;;;18.72;46.19
71057;BME280;58380;48.312;9.246;2023-04-22T11:50:32;92957.66;;;18.72;45.92
71057;BME280;58380;48.312;9.246;2023-04-22T11:53:14;92972.88;;;18.72;41.44
71057;BME280;58380;48.312;9.246;2023-04-22T11:55:42;92979.34;;;18.71;43.37
71057;BME280;58380;48.312;9.246;2023-04-22T11:58:11;92973.19;;;18.49;42.02
71057;BME280;58380;48.312;9.246;2023-04-22T12:00:44;92973.13;;;18.28;41.47
71057;BME280;58380;48.312;9.246;2023-04-22T12:03:22;92975.41;;;18.09;43.09
71057;BME280;58380;48.312;9.246;2023-04-22T12:05:59;92948.97;;;17.78;43.19
71057;BME280;58380;48.312;9.246;2023-04-22T12:08:36;92982.56;;;17.87;42.95
71057;BME280;58380;48.312;9.246;2023-04-22T12:11:08;92982.88;;;17.86;43.63
71057;BME280;58380;48.312;9.246;2023-04-22T12:16:16;92937.22;;;17.70;47.22
71057;BME280;58380;48.312;9.246;2023-04-22T12:18:50;92942.06;;;17.85;44.87
71057;BME280;58380;48.312;9.246;2023-04-22T12:21:22;92968.81;;;18.06;45.01
71057;BME280;58380;48.312;9.246;2023-04-22T12:23:52;92992.16;;;18.27;43.74
71057;BME280;58380;48.312;9.246;2023-04-22T12:26:20;92921.75;;;17.93;43.13
71057;BME280;58380;48.312;9.246;2023-04-22T12:28:48;92990.69;;;18.38;42.27
71057;BME280;58380;48.312;9.246;2023-04-22T12:31:16;92966.09;;;18.24;42.86
71057;BME280;58380;48.312;9.246;2023-04-22T12:33:43;92981.16;;;18.28;44.18
71057;BME280;58380;48.312;9.246;2023-04-22T12:36:10;92983.69;;;18.25;42.83
71057;BME280;58380;48.312;9.246;2023-04-22T12:38:36;92980.56;;;18.14;42.94
71057;BME280;58380;48.312;9.246;2023-04-22T12:41:02;92983.53;;;18.21;45.19
71057;BME280;58380;48.312;9.246;2023-04-22T12:43:31;92973.00;;;18.25;44.62
71057;BME280;58380;48.312;9.246;2023-04-22T12:46:01;92979.47;;;18.53;44.99
71057;BME280;58380;48.312;9.246;2023-04-22T12:48:27;92980.91;;;18.72;48.21
71057;BME280;58380;48.312;9.246;2023-04-22T12:50:53;92979.66;;;18.69;48.55
71057;BME280;58380;48.312;9.246;2023-04-22T12:53:20;92956.84;;;18.51;45.81
71057;BME280;58380;48.312;9.246;2023-04-22T12:55:46;92957.06;;;18.37;42.73
71057;BME280;58380;48.312;9.246;2023-04-22T12:58:12;92968.81;;;18.45;45.47
71057;BME280;58380;48.312;9.246;2023-04-22T13:00:38;92978.72;;;18.44;49.26
71057;BME280;58380;48.312;9.246;2023-04-22T13:03:05;92960.59;;;18.20;49.26
71057;BME280;58380;48.312;9.246;2023-04-22T13:05:31;92959.56;;;18.04;47.20
71057;BME280;58380;48.312;9.246;2023-04-22T13:07:57;92955.97;;;18.00;44.12
71057;BME280;58380;48.312;9.246;2023-04-22T13:10:23;92888.44;;;17.43;46.32
71057;BME280;58380;48.312;9.246;2023-04-22T13:12:52;92959.44;;;17.92;45.01
71057;BME280;58380;48.312;9.246;2023-04-22T13:15:19;92948.03;;;17.82;44.89
71057;BME280;58380;48.312;9.246;2023-04-22T13:17:46;92945.50;;;17.86;46.25